Time;durP1;ratioP1;P1;durP2;ratioP2;P2;SDS_P1;SDS_P2;PMS_P1;PMS_P2;Temp;Humidity;BMP_temperature;BMP_pressure;BME280_temperature;BME280_humidity;BME280_pressure;Samples;Min_cycle;Max_cycle;Signal;HPM_P1;HPM_P2
2023/07/12 00:00:46;;;;;;;19.38;11.43;;;589.30;2432.00;;;;;;5074348;28;20028;-80
2023/07/12 00:03:13;;;;;;;15.27;10.80;;;589.20;2432.00;;;;;;5090808;28;20040;-79
2023/07/12 00:05:39;;;;;;;14.50;10.98;;;589.30;2432.00;;;;;;5096063;28;20016;-79
2023/07/12 00:08:05;;;;;;;14.38;10.70;;;589.20;2432.00;;;;;;5095274;28;20072;-79
2023/07/12 00:10:36;;;;;;;15.77;11.15;;;589.30;2432.00;;;;;;5095938;28;20061;-78
2023/07/12 00:13:02;;;;;;;13.55;10.38;;;589.20;2432.00;;;;;;5096286;28;20028;-80
2023/07/12 00:15:33;;;;;;;16.08;10.65;;;589.30;2432.00;;;;;;5095140;28;20031;-79
2023/07/12 00:17:58;;;;;;;13.90;10.05;;;589.20;2432.00;;;;;;5095070;28;20065;-79
2023/07/12 00:20:29;;;;;;;12.57;10.20;;;589.20;2432.00;;;;;;5094888;28;20097;-80
2023/07/12 00:22:56;;;;;;;16.15;11.20;;;589.30;2432.00;;;;;;5095835;28;20032;-79
2023/07/12 00:25:24;;;;;;;13.10;11.18;;;589.40;2432.00;;;;;;5109549;28;20115;-80
2023/07/12 00:27:50;;;;;;;18.42;10.80;;;589.40;2432.00;;;;;;5109432;28;20028;-79
2023/07/12 00:30:34;;;;;;;15.40;11.45;;;589.30;2432.00;;;;;;5103520;28;20116;-79
2023/07/12 00:33:03;;;;;;;12.88;10.50;;;589.30;2432.00;;;;;;5110127;28;20054;-79
2023/07/12 00:35:31;;;;;;;14.85;10.93;;;589.40;2432.00;;;;;;5111221;28;20024;-79
2023/07/12 00:37:59;;;;;;;18.73;10.57;;;589.20;2432.00;;;;;;5110781;28;20020;-79
2023/07/12 00:40:56;;;;;;;13.77;9.23;;;589.10;2432.00;;;;;;5112199;28;20028;-79
2023/07/12 00:43:54;;;;;;;14.73;9.30;;;589.20;2432.00;;;;;;5111620;28;20028;-79
2023/07/12 00:46:25;;;;;;;15.43;10.02;;;589.20;2432.00;;;;;;5111294;28;20020;-79
2023/07/12 00:48:51;;;;;;;13.70;10.13;;;589.10;2432.00;;;;;;5111861;28;20080;-79
2023/07/12 00:51:43;;;;;;;12.95;10.65;;;589.10;2432.00;;;;;;5114104;28;20012;-80
2023/07/12 00:54:15;;;;;;;14.43;11.45;;;589.10;2432.00;;;;;;5100346;28;20043;-80
2023/07/12 00:56:41;;;;;;;17.52;10.50;;;589.00;2432.00;;;;;;5119214;28;20032;-79
2023/07/12 00:59:21;;;;;;;13.25;9.65;;;588.80;2432.00;;;;;;5119075;28;20012;-79
2023/07/12 01:01:51;;;;;;;18.10;10.00;;;564.10;2432.00;;;;;;5132283;28;20008;-80
2023/07/12 01:04:25;;;;;;;13.77;9.77;;;564.10;2432.00;;;;;;5110752;28;20017;-80
2023/07/12 01:06:51;;;;;;;15.00;9.45;;;563.90;2432.00;;;;;;5098672;28;20047;-79
2023/07/12 01:09:18;;;;;;;13.98;8.90;;;563.90;2432.00;;;;;;5098349;28;20097;-79
2023/07/12 01:11:45;;;;;;;15.40;9.38;;;563.70;2432.00;;;;;;5099506;28;20008;-79
2023/07/12 01:14:16;;;;;;;16.70;9.93;;;563.80;2432.00;;;;;;5098083;28;20009;-80
2023/07/12 01:16:46;;;;;;;13.27;10.07;;;563.80;2432.00;;;;;;5083294;28;20060;-79
2023/07/12 01:19:12;;;;;;;16.23;10.30;;;563.70;2432.00;;;;;;5081104;28;20032;-79
2023/07/12 01:21:46;;;;;;;10.82;9.38;;;563.60;2432.00;;;;;;5079983;28;20511;-79
2023/07/12 01:24:12;;;;;;;13.80;10.00;;;563.60;2432.00;;;;;;5075806;28;20024;-80
2023/07/12 01:26:41;;;;;;;14.43;9.82;;;563.60;2432.00;;;;;;5075757;28;20043;-78
2023/07/12 01:29:08;;;;;;;16.52;10.55;;;563.80;2432.00;;;;;;5073882;28;20043;-79
2023/07/12 01:31:35;;;;;;;14.75;10.85;;;563.70;2432.00;;;;;;5072819;28;20032;-79
2023/07/12 01:34:01;;;;;;;16.70;10.95;;;563.80;2432.00;;;;;;5075401;28;20025;-79
2023/07/12 01:36:29;;;;;;;17.30;10.98;;;563.70;2432.00;;;;;;5073665;28;20093;-78
2023/07/12 01:38:57;;;;;;;13.63;9.73;;;563.70;2432.00;;;;;;5073322;28;20024;-79
2023/07/12 01:41:23;;;;;;;13.32;10.20;;;563.70;2432.00;;;;;;5072603;28;20086;-79
2023/07/12 01:43:49;;;;;;;12.55;9.85;;;563.80;2432.00;;;;;;5072928;28;20643;-79
2023/07/12 01:46:16;;;;;;;12.50;9.98;;;563.60;2432.00;;;;;;5074025;28;20033;-79
2023/07/12 01:48:41;;;;;;;14.07;10.00;;;563.70;2432.00;;;;;;5071928;28;20119;-78
2023/07/12 01:51:08;;;;;;;15.63;10.30;;;563.60;2432.00;;;;;;5073680;28;20471;-79
2023/07/12 01:53:35;;;;;;;17.02;10.73;;;563.70;2432.00;;;;;;5072691;28;20089;-79
2023/07/12 01:56:02;;;;;;;16.48;10.50;;;563.60;2432.00;;;;;;5073644;28;20498;-79
2023/07/12 01:58:28;;;;;;;12.60;10.45;;;563.50;2432.00;;;;;;5074139;28;20403;-79
2023/07/12 02:00:55;;;;;;;13.93;9.13;;;563.60;2432.00;;;;;;5073522;28;20024;-79
2023/07/12 02:03:21;;;;;;;11.95;10.18;;;563.60;2432.00;;;;;;5072383;28;20036;-79
2023/07/12 02:05:48;;;;;;;17.38;9.68;;;563.50;2432.00;;;;;;5073873;28;20029;-80
2023/07/12 02:08:14;;;;;;;14.70;9.98;;;563.40;2432.00;;;;;;5071877;28;20020;-79
2023/07/12 02:10:40;;;;;;;12.88;9.43;;;563.40;2432.00;;;;;;5072201;28;20049;-80
2023/07/12 02:13:06;;;;;;;11.73;9.65;;;563.40;2432.00;;;;;;5072291;28;20032;-79
2023/07/12 02:15:32;;;;;;;12.07;9.63;;;563.40;2432.00;;;;;;5073049;28;20098;-79
2023/07/12 02:17:59;;;;;;;12.15;9.43;;;563.40;2432.00;;;;;;5072327;28;20492;-78
2023/07/12 02:20:25;;;;;;;14.15;9.38;;;563.40;2432.00;;;;;;5072270;28;20031;-79
2023/07/12 02:22:51;;;;;;;12.60;9.23;;;563.40;2432.00;;;;;;5071829;28;20028;-79
2023/07/12 02:25:18;;;;;;;17.15;10.07;;;563.20;2432.00;;;;;;5072367;28;20543;-80
2023/07/12 02:27:47;;;;;;;12.32;8.32;;;563.30;2432.00;;;;;;5072715;28;20115;-79
2023/07/12 02:30:16;;;;;;;13.07;9.13;;;563.30;2432.00;;;;;;5072847;28;20024;-80
2023/07/12 02:32:43;;;;;;;9.43;8.45;;;538.50;2406.40;;;;;;5072174;28;20028;-79
2023/07/12 02:35:09;;;;;;;12.13;8.75;;;538.30;2406.40;;;;;;5072132;28;20036;-79
2023/07/12 02:37:36;;;;;;;12.43;9.15;;;538.30;2406.40;;;;;;5072093;28;20028;-79
2023/07/12 02:40:06;;;;;;;11.07;8.65;;;538.40;2406.40;;;;;;5072135;28;20025;-79
2023/07/12 02:42:32;;;;;;;10.38;9.00;;;538.40;2406.40;;;;;;5072058;28;20029;-79
2023/07/12 02:44:58;;;;;;;14.43;9.40;;;538.50;2406.40;;;;;;5071778;28;20044;-79
2023/07/12 02:47:24;;;;;;;10.90;8.82;;;538.50;2406.40;;;;;;5072021;28;20025;-79
2023/07/12 02:49:50;;;;;;;11.15;8.80;;;538.50;2406.40;;;;;;5071783;28;20028;-78
2023/07/12 02:52:16;;;;;;;11.98;8.73;;;538.50;2406.40;;;;;;5071899;28;20071;-79
2023/07/12 02:54:42;;;;;;;10.50;9.23;;;538.50;2406.40;;;;;;5074836;28;20112;-79
2023/07/12 02:57:10;;;;;;;11.73;8.25;;;538.40;2406.40;;;;;;5105693;28;20119;-79
2023/07/12 02:59:36;;;;;;;13.38;9.48;;;538.40;2406.40;;;;;;5075100;28;20033;-79
2023/07/12 03:02:03;;;;;;;13.18;8.40;;;538.40;2406.40;;;;;;5075875;28;20024;-78
2023/07/12 03:04:29;;;;;;;10.93;8.63;;;538.50;2406.40;;;;;;5075291;28;20123;-79
2023/07/12 03:06:55;;;;;;;11.82;8.77;;;538.30;2406.40;;;;;;5076435;28;20091;-79
2023/07/12 03:09:22;;;;;;;11.90;8.82;;;538.40;2406.40;;;;;;5075418;28;20131;-79
2023/07/12 03:11:48;;;;;;;9.45;8.43;;;538.40;2406.40;;;;;;5074595;28;20024;-80
2023/07/12 03:14:22;;;;;;;13.25;8.20;;;538.30;2406.40;;;;;;5075090;28;20028;-79
2023/07/12 03:16:48;;;;;;;11.25;8.93;;;538.50;2406.40;;;;;;5076923;28;20074;-79
2023/07/12 03:19:15;;;;;;;11.25;8.50;;;538.40;2406.40;;;;;;5075315;28;20468;-79
2023/07/12 03:21:41;;;;;;;13.13;10.02;;;538.30;2406.40;;;;;;5075262;28;20119;-79
2023/07/12 03:24:08;;;;;;;16.67;9.93;;;537.70;2406.40;;;;;;5076271;28;20052;-79
2023/07/12 03:26:35;;;;;;;17.05;10.30;;;537.90;2406.40;;;;;;5074748;28;20028;-79
2023/07/12 03:29:01;;;;;;;14.82;9.98;;;537.90;2406.40;;;;;;5076498;28;20041;-80
2023/07/12 03:31:30;;;;;;;14.93;10.00;;;537.80;2406.40;;;;;;5075164;28;20078;-79
2023/07/12 03:33:58;;;;;;;15.55;9.68;;;538.00;2406.40;;;;;;5074782;28;20098;-79
2023/07/12 03:36:26;;;;;;;15.48;9.70;;;538.00;2406.40;;;;;;5075850;28;20046;-79
2023/07/12 03:38:55;;;;;;;13.20;10.50;;;538.20;2406.40;;;;;;5076344;28;20021;-79
2023/07/12 03:41:22;;;;;;;12.52;10.52;;;538.10;2406.40;;;;;;5076617;28;20020;-80
2023/07/12 03:43:48;;;;;;;11.93;9.85;;;537.90;2406.40;;;;;;5076353;28;20035;-80
2023/07/12 03:46:15;;;;;;;14.60;10.38;;;538.00;2406.40;;;;;;5074455;28;20035;-80
2023/07/12 03:48:41;;;;;;;12.75;9.80;;;537.90;2406.40;;;;;;5074683;28;20067;-79
2023/07/12 03:51:08;;;;;;;16.45;9.27;;;537.80;2406.40;;;;;;5074768;28;20078;-80
2023/07/12 03:53:36;;;;;;;15.75;11.20;;;537.90;2406.40;;;;;;5075664;28;20149;-79
2023/07/12 03:56:02;;;;;;;19.27;10.82;;;538.00;2406.40;;;;;;5074757;28;20119;-80
2023/07/12 03:58:30;;;;;;;14.18;10.13;;;537.90;2406.40;;;;;;5076645;28;20056;-80
2023/07/12 04:00:56;;;;;;;14.70;10.20;;;538.20;2406.40;;;;;;5092672;28;20019;-79
2023/07/12 04:03:22;;;;;;;24.55;11.07;;;538.20;2406.40;;;;;;5086320;28;20041;-79
2023/07/12 04:05:51;;;;;;;17.30;9.90;;;538.10;2406.40;;;;;;5074683;28;20036;-79
2023/07/12 04:08:17;;;;;;;11.70;9.38;;;538.00;2406.40;;;;;;5074229;28;20127;-80
2023/07/12 04:10:43;;;;;;;14.18;8.80;;;538.00;2406.40;;;;;;5075107;28;20044;-80
2023/07/12 04:13:09;;;;;;;14.93;8.68;;;538.00;2406.40;;;;;;5074539;28;20469;-79
2023/07/12 04:15:36;;;;;;;15.73;9.60;;;538.20;2406.40;;;;;;5074202;28;20056;-80
2023/07/12 04:18:03;;;;;;;14.80;9.98;;;538.20;2406.40;;;;;;5075674;28;20108;-79
2023/07/12 04:20:29;;;;;;;15.02;10.18;;;538.10;2406.40;;;;;;5074145;28;20024;-79
2023/07/12 04:22:55;;;;;;;12.65;9.85;;;538.20;2406.40;;;;;;5074050;28;20051;-79
2023/07/12 04:25:21;;;;;;;15.68;10.02;;;538.20;2406.40;;;;;;5074217;28;20468;-79
2023/07/12 04:27:47;;;;;;;12.27;9.95;;;538.30;2406.40;;;;;;5074231;28;20021;-79
2023/07/12 04:30:15;;;;;;;19.58;9.50;;;538.40;2406.40;;;;;;5074368;28;20425;-79
2023/07/12 04:32:41;;;;;;;16.50;9.63;;;538.40;2406.40;;;;;;5073984;28;20032;-79
2023/07/12 04:35:08;;;;;;;12.95;9.82;;;538.40;2406.40;;;;;;5073720;28;20032;-81
2023/07/12 04:37:34;;;;;;;16.27;9.68;;;538.40;2406.40;;;;;;5074533;28;20025;-80
2023/07/12 04:40:00;;;;;;;16.85;10.25;;;538.40;2406.40;;;;;;5074935;28;20051;-80
2023/07/12 04:42:26;;;;;;;18.05;10.60;;;538.40;2406.40;;;;;;5074501;28;20468;-79
2023/07/12 04:44:52;;;;;;;12.43;9.77;;;538.30;2406.40;;;;;;5075735;28;20128;-79
2023/07/12 04:47:18;;;;;;;12.40;9.68;;;538.40;2406.40;;;;;;5074359;28;20024;-79
2023/07/12 04:49:44;;;;;;;14.23;9.98;;;538.50;2406.40;;;;;;5073585;28;20111;-80
2023/07/12 04:52:11;;;;;;;20.85;11.25;;;538.50;2406.40;;;;;;5073383;28;20028;-80
2023/07/12 04:54:45;;;;;;;19.90;10.73;;;563.20;2432.00;;;;;;5073408;28;20406;-79
2023/07/12 04:57:11;;;;;;;16.05;9.73;;;538.40;2406.40;;;;;;5074564;28;20028;-79
2023/07/12 04:59:37;;;;;;;14.25;10.82;;;538.50;2406.40;;;;;;5074219;28;20139;-80
2023/07/12 05:02:04;;;;;;;16.35;11.13;;;538.50;2406.40;;;;;;5075278;28;20474;-80
2023/07/12 05:04:29;;;;;;;14.40;9.93;;;538.50;2406.40;;;;;;5074928;28;20365;-80
2023/07/12 05:06:55;;;;;;;15.65;10.23;;;563.20;2432.00;;;;;;5073337;28;20037;-79
2023/07/12 05:09:21;;;;;;;13.48;11.15;;;563.30;2432.00;;;;;;5073044;28;20056;-80
2023/07/12 05:11:48;;;;;;;13.35;11.15;;;563.40;2432.00;;;;;;5075260;28;20484;-80
2023/07/12 05:14:14;;;;;;;17.35;10.95;;;563.40;2432.00;;;;;;5073483;28;20460;-79
2023/07/12 05:16:40;;;;;;;14.75;11.23;;;563.50;2432.00;;;;;;5073259;28;20039;-79
2023/07/12 05:19:05;;;;;;;13.50;9.63;;;563.40;2432.00;;;;;;5073036;28;20472;-79
2023/07/12 05:21:32;;;;;;;13.35;9.93;;;563.60;2432.00;;;;;;5073965;28;20020;-79
2023/07/12 05:23:58;;;;;;;16.25;9.85;;;563.60;2432.00;;;;;;5073229;28;20461;-78
2023/07/12 05:26:24;;;;;;;13.07;9.75;;;563.60;2432.00;;;;;;5073079;28;20093;-80
2023/07/12 05:28:49;;;;;;;14.88;10.13;;;563.70;2432.00;;;;;;5073106;28;20024;-79
2023/07/12 05:31:15;;;;;;;13.10;9.85;;;563.70;2432.00;;;;;;5072896;28;20024;-79
2023/07/12 05:33:44;;;;;;;15.70;10.07;;;563.70;2432.00;;;;;;5073105;28;20115;-78
2023/07/12 05:36:11;;;;;;;16.85;10.23;;;563.80;2432.00;;;;;;5072784;28;20097;-79
2023/07/12 05:38:37;;;;;;;16.48;10.60;;;563.80;2432.00;;;;;;5072712;28;20480;-78
2023/07/12 05:41:03;;;;;;;18.05;11.60;;;564.00;2432.00;;;;;;5072916;28;20032;-78
2023/07/12 05:43:29;;;;;;;15.43;11.93;;;564.10;2432.00;;;;;;5072724;28;20039;-79
2023/07/12 05:45:58;;;;;;;19.23;12.82;;;564.10;2432.00;;;;;;5072565;28;20028;-79
2023/07/12 05:48:24;;;;;;;17.00;12.23;;;588.80;2432.00;;;;;;5072672;28;20020;-78
2023/07/12 05:50:54;;;;;;;16.70;10.93;;;588.90;2432.00;;;;;;5072589;28;20028;-79
2023/07/12 05:53:21;;;;;;;18.13;11.50;;;589.10;2432.00;;;;;;5071985;28;20032;-79
2023/07/12 05:55:47;;;;;;;12.00;10.27;;;589.20;2432.00;;;;;;5072627;28;20078;-79
2023/07/12 05:58:13;;;;;;;15.40;11.23;;;589.30;2432.00;;;;;;5073379;28;20464;-81
2023/07/12 06:00:39;;;;;;;20.30;12.75;;;589.40;2432.00;;;;;;5073889;28;20020;-80
2023/07/12 06:03:06;;;;;;;14.27;12.43;;;589.40;2432.00;;;;;;5072362;28;20039;-81
2023/07/12 06:05:32;;;;;;;16.80;10.95;;;589.60;2432.00;;;;;;5072613;28;20102;-82
2023/07/12 06:07:59;;;;;;;18.85;10.70;;;589.70;2432.00;;;;;;5072200;28;20119;-81
2023/07/12 06:10:25;;;;;;;15.75;10.63;;;589.70;2432.00;;;;;;5072864;28;20135;-81
2023/07/12 06:12:51;;;;;;;19.48;10.70;;;614.40;2432.00;;;;;;5072287;28;20128;-80
2023/07/12 06:15:17;;;;;;;17.58;11.15;;;614.50;2432.00;;;;;;5072284;28;20025;-81
2023/07/12 06:17:43;;;;;;;18.40;10.48;;;614.60;2432.00;;;;;;5073861;28;20031;-81
2023/07/12 06:20:09;;;;;;;24.60;11.27;;;614.70;2432.00;;;;;;5072182;28;20036;-81
2023/07/12 06:22:36;;;;;;;23.65;10.98;;;614.60;2432.00;;;;;;5072269;28;20499;-81
2023/07/12 06:25:03;;;;;;;18.52;10.25;;;614.90;2432.00;;;;;;5072288;28;20040;-83
2023/07/12 06:27:29;;;;;;;17.30;10.77;;;615.00;2432.00;;;;;;5072172;28;20025;-83
2023/07/12 06:29:54;;;;;;;17.25;10.55;;;615.00;2432.00;;;;;;5072239;28;20380;-83
2023/07/12 06:32:20;;;;;;;15.10;10.13;;;615.00;2432.00;;;;;;5074453;28;20115;-82
2023/07/12 06:34:46;;;;;;;12.13;9.85;;;615.10;2432.00;;;;;;5104610;28;20039;-82
2023/07/12 06:37:12;;;;;;;16.35;10.38;;;640.00;2432.00;;;;;;5118310;28;20026;-84
2023/07/12 06:39:38;;;;;;;14.32;10.02;;;640.10;2432.00;;;;;;5120037;28;20024;-81
2023/07/12 06:42:04;;;;;;;15.07;9.27;;;640.20;2432.00;;;;;;5119527;28;20038;-82
2023/07/12 06:44:30;;;;;;;14.68;9.18;;;640.20;2432.00;;;;;;5117279;28;20590;-81
2023/07/12 06:46:56;;;;;;;12.75;8.85;;;640.30;2432.00;;;;;;5116929;28;20127;-81
2023/07/12 06:49:21;;;;;;;21.10;16.15;;;640.50;2432.00;;;;;;5099090;28;20426;-81
2023/07/12 06:51:47;;;;;;;28.38;16.95;;;640.70;2432.00;;;;;;5096678;28;20036;-82
2023/07/12 06:54:17;;;;;;;15.35;11.30;;;665.60;2432.00;;;;;;5095549;28;20028;-81
2023/07/12 06:56:43;;;;;;;17.13;12.95;;;665.60;2432.00;;;;;;5094999;28;20024;-81
2023/07/12 06:59:10;;;;;;;12.73;10.32;;;665.70;2432.00;;;;;;5089497;28;20119;-81
2023/07/12 07:01:37;;;;;;;22.80;16.60;;;665.60;2432.00;;;;;;5080457;28;20028;-81
2023/07/12 07:04:03;;;;;;;34.47;23.05;;;665.90;2432.00;;;;;;5087111;28;20395;-80
2023/07/12 07:06:30;;;;;;;17.75;12.07;;;666.10;2432.00;;;;;;5105611;28;20061;-80
2023/07/12 07:08:56;;;;;;;26.63;10.68;;;666.20;2432.00;;;;;;5107620;28;20056;-80
2023/07/12 07:11:22;;;;;;;18.02;12.43;;;666.40;2432.00;;;;;;5107830;28;20050;-83
2023/07/12 07:13:50;;;;;;;20.83;10.73;;;666.50;2432.00;;;;;;5102303;28;20060;-82
2023/07/12 07:16:17;;;;;;;22.30;12.60;;;691.20;2432.00;;;;;;5097912;28;20024;-80
2023/07/12 07:18:43;;;;;;;20.10;14.27;;;691.20;2432.00;;;;;;5097521;28;20031;-80
2023/07/12 07:21:09;;;;;;;20.42;9.82;;;666.50;2432.00;;;;;;5096192;28;20035;-80
2023/07/12 07:23:35;;;;;;;22.80;14.50;;;691.20;2432.00;;;;;;5096382;28;20028;-81
2023/07/12 07:26:03;;;;;;;26.27;12.98;;;691.40;2432.00;;;;;;5095914;28;20032;-79
2023/07/12 07:28:29;;;;;;;14.75;9.32;;;691.60;2432.00;;;;;;5096680;28;20024;-80
2023/07/12 07:30:55;;;;;;;17.67;9.93;;;691.70;2432.00;;;;;;5078531;28;20072;-79
2023/07/12 07:33:21;;;;;;;17.23;9.65;;;691.70;2432.00;;;;;;5074326;28;20353;-80
2023/07/12 07:35:47;;;;;;;14.80;10.13;;;691.80;2432.00;;;;;;5074067;28;20027;-82
2023/07/12 07:38:13;;;;;;;19.35;11.80;;;692.00;2432.00;;;;;;5075563;28;20062;-81
2023/07/12 07:40:43;;;;;;;16.95;9.85;;;716.80;2432.00;;;;;;5075124;28;20048;-81
2023/07/12 07:43:14;;;;;;;12.93;8.90;;;691.90;2432.00;;;;;;5076278;28;20033;-78
2023/07/12 07:45:41;;;;;;;14.63;9.63;;;717.00;2432.00;;;;;;5074678;28;20047;-82
2023/07/12 07:48:07;;;;;;;13.15;8.73;;;717.10;2432.00;;;;;;5076202;28;20025;-83
2023/07/12 07:50:32;;;;;;;16.40;8.95;;;716.90;2432.00;;;;;;5076347;28;20032;-82
2023/07/12 07:52:58;;;;;;;14.95;10.27;;;717.10;2432.00;;;;;;5075681;28;20025;-80
2023/07/12 07:55:26;;;;;;;16.38;9.48;;;717.20;2432.00;;;;;;5075499;28;20020;-82
2023/07/12 07:57:52;;;;;;;18.23;10.02;;;717.20;2432.00;;;;;;5087815;28;20460;-83
2023/07/12 08:00:18;;;;;;;15.20;9.32;;;717.40;2432.00;;;;;;5096333;28;20459;-85
2023/07/12 08:02:44;;;;;;;18.02;10.73;;;717.60;2432.00;;;;;;5103873;28;20028;-84
2023/07/12 08:05:11;;;;;;;15.68;9.50;;;742.40;2432.00;;;;;;5108371;28;20032;-85
2023/07/12 08:07:39;;;;;;;13.40;9.32;;;742.50;2432.00;;;;;;5123873;28;20035;-84
2023/07/12 08:10:07;;;;;;;19.77;9.95;;;742.70;2432.00;;;;;;5117794;28;20053;-82
2023/07/12 08:12:33;;;;;;;17.88;11.43;;;742.80;2432.00;;;;;;5091619;28;20032;-82
2023/07/12 08:14:59;;;;;;;12.27;8.85;;;742.90;2432.00;;;;;;5105215;28;20028;-82
2023/07/12 08:17:25;;;;;;;13.07;9.00;;;743.00;2432.00;;;;;;5096120;28;20031;-82
2023/07/12 08:19:52;;;;;;;14.63;10.18;;;743.00;2432.00;;;;;;5094513;28;20476;-83
2023/07/12 08:22:22;;;;;;;14.43;8.68;;;743.20;2432.00;;;;;;5096605;28;20047;-82
2023/07/12 08:24:48;;;;;;;14.40;9.23;;;743.00;2432.00;;;;;;5095672;28;20093;-85
2023/07/12 08:27:16;;;;;;;13.15;9.80;;;743.30;2432.00;;;;;;5095750;28;20125;-80
2023/07/12 08:29:42;;;;;;;15.27;9.30;;;743.00;2432.00;;;;;;5094257;28;20035;-80
2023/07/12 08:32:09;;;;;;;20.38;10.15;;;743.30;2432.00;;;;;;5105075;27;20483;-78
2023/07/12 08:34:35;;;;;;;14.90;10.93;;;743.30;2432.00;;;;;;5093926;28;20077;-80
2023/07/12 08:37:01;;;;;;;22.08;12.13;;;768.10;2432.00;;;;;;5096245;28;20028;-79
2023/07/12 08:39:27;;;;;;;15.82;12.57;;;768.50;2432.00;;;;;;5094769;28;20150;-79
2023/07/12 08:41:53;;;;;;;19.60;13.07;;;768.60;2432.00;;;;;;5095004;28;20031;-78
2023/07/12 08:44:19;;;;;;;20.73;14.63;;;768.70;2432.00;;;;;;5094716;28;20028;-79
2023/07/12 08:46:52;;;;;;;13.35;8.75;;;793.60;2432.00;;;;;;5095977;28;20040;-79
2023/07/12 08:49:18;;;;;;;16.80;10.00;;;768.70;2432.00;;;;;;5094006;28;20027;-79
2023/07/12 08:51:45;;;;;;;13.80;9.30;;;793.70;2432.00;;;;;;5094408;28;20058;-79
2023/07/12 08:54:24;;;;;;;14.93;8.27;;;793.70;2432.00;;;;;;5095191;28;20039;-81
2023/07/12 08:56:58;;;;;;;12.82;8.85;;;768.60;2432.00;;;;;;5095884;28;20027;-78
2023/07/12 08:59:25;;;;;;;17.73;10.95;;;793.70;2432.00;;;;;;5094959;28;20471;-80
2023/07/12 09:01:53;;;;;;;14.23;9.50;;;794.00;2432.00;;;;;;5094818;28;20031;-79
2023/07/12 09:04:28;;;;;;;21.95;10.25;;;794.20;2432.00;;;;;;5096951;28;20028;-81
2023/07/12 09:06:56;;;;;;;15.05;9.68;;;794.30;2432.00;;;;;;5089252;28;20481;-80
2023/07/12 09:09:22;;;;;;;17.83;9.30;;;794.30;2432.00;;;;;;5090818;28;20455;-80
2023/07/12 09:11:48;;;;;;;23.08;12.02;;;794.40;2432.00;;;;;;5095085;28;20035;-81
2023/07/12 09:14:20;;;;;;;18.38;9.88;;;819.20;2432.00;;;;;;5093518;28;20074;-80
2023/07/12 09:16:49;;;;;;;12.38;9.32;;;819.30;2380.80;;;;;;5093229;28;20024;-81
2023/07/12 09:19:19;;;;;;;12.77;9.20;;;819.60;2355.20;;;;;;5092977;28;20028;-79
2023/07/12 09:21:53;;;;;;;11.80;8.32;;;819.50;2355.20;;;;;;5094560;28;20028;-80
2023/07/12 09:24:26;;;;;;;15.43;7.90;;;819.60;2329.60;;;;;;5094498;28;20031;-79
2023/07/12 09:27:05;;;;;;;14.77;9.15;;;820.10;2329.60;;;;;;5094868;28;20058;-80
2023/07/12 09:29:33;;;;;;;15.98;8.40;;;819.90;2304.00;;;;;;5092928;28;20035;-80
2023/07/12 09:32:15;;;;;;;11.00;9.02;;;819.80;2278.40;;;;;;5092553;28;20474;-80
2023/07/12 09:34:42;;;;;;;13.73;9.93;;;819.80;2329.60;;;;;;5092982;28;20523;-81
2023/07/12 09:37:20;;;;;;;13.55;9.05;;;820.00;2304.00;;;;;;5092593;28;20052;-81
2023/07/12 09:39:57;;;;;;;10.07;7.55;;;844.90;2329.60;;;;;;5092414;28;20032;-78
2023/07/12 09:42:25;;;;;;;12.30;8.40;;;820.10;2278.40;;;;;;5092941;28;20031;-80
2023/07/12 09:44:51;;;;;;;15.25;11.18;;;844.90;2304.00;;;;;;5092327;28;20484;-79
2023/07/12 09:47:37;;;;;;;10.90;9.25;;;820.10;2278.40;;;;;;5091884;28;20035;-81
2023/07/12 09:50:10;;;;;;;10.43;8.57;;;845.10;2278.40;;;;;;5090064;28;20023;-81
2023/07/12 09:52:48;;;;;;;11.05;8.50;;;844.90;2278.40;;;;;;5085938;28;20031;-81
2023/07/12 09:55:29;;;;;;;13.65;8.75;;;845.20;2329.60;;;;;;5100324;28;20012;-80
2023/07/12 09:58:13;;;;;;;14.60;8.30;;;845.40;2304.00;;;;;;5109627;28;20028;-80
2023/07/12 10:01:11;;;;;;;12.80;8.32;;;845.60;2304.00;;;;;;5094331;28;20027;-77
2023/07/12 10:03:41;;;;;;;14.52;7.70;;;870.50;2252.80;;;;;;5063808;28;20131;-80
2023/07/12 10:06:26;;;;;;;14.70;9.07;;;;;;;;;;5109077;28;20073;-79
2023/07/12 10:08:55;;;;;;;9.82;7.43;;;;;;;;;;5093040;28;20024;-80
2023/07/12 10:11:26;;;;;;;12.38;8.63;;;;;;;;;;5091841;28;20467;-78
2023/07/12 10:13:57;;;;;;;9.55;7.22;;;870.50;2278.40;;;;;;5092722;28;20133;-77
2023/07/12 10:16:34;;;;;;;12.60;8.35;;;845.70;2304.00;;;;;;5092044;28;20042;-78
2023/07/12 10:19:25;;;;;;;16.63;7.18;;;870.70;2252.80;;;;;;5093098;28;20142;-79
2023/07/12 10:21:54;;;;;;;14.60;7.35;;;870.60;2252.80;;;;;;5092172;28;20845;-80
2023/07/12 10:24:27;;;;;;;11.40;7.10;;;870.90;2252.80;;;;;;5092264;28;20032;-78
2023/07/12 10:26:52;;;;;;;13.25;7.32;;;870.70;2201.60;;;;;;5093020;28;20105;-77
2023/07/12 10:29:47;;;;;;;11.60;7.10;;;871.00;2176.00;;;;;;5093317;28;20056;-77
2023/07/12 10:32:25;;;;;;;11.65;9.00;;;871.20;2176.00;;;;;;5091512;28;20463;-78
2023/07/12 10:35:34;;;;;;;16.40;10.18;;;871.10;2201.60;;;;;;5092393;28;20043;-79
2023/07/12 10:38:04;;;;;;;9.68;8.32;;;896.10;2150.40;;;;;;5091977;28;20052;-79
2023/07/12 10:40:38;;;;;;;15.02;10.80;;;896.10;2124.80;;;;;;5092584;28;20464;-81
2023/07/12 10:43:11;;;;;;;13.85;8.23;;;896.20;2150.40;;;;;;5092874;28;20024;-79
2023/07/12 10:45:38;;;;;;;17.23;10.50;;;896.20;2124.80;;;;;;5091641;28;20118;-79
2023/07/12 10:48:06;;;;;;;12.57;7.00;;;896.60;2150.40;;;;;;5092756;28;20095;-78
2023/07/12 10:50:48;;;;;;;10.27;6.50;;;921.60;2150.40;;;;;;5093257;28;20016;-78
2023/07/12 10:53:27;;;;;;;12.32;6.88;;;896.60;2099.20;;;;;;5091731;28;20387;-78
2023/07/12 10:56:10;;;;;;;13.75;6.55;;;896.50;2124.80;;;;;;5091370;28;20024;-80
2023/07/12 10:58:51;;;;;;;9.15;7.03;;;896.70;2099.20;;;;;;5083907;28;20059;-78
2023/07/12 11:01:42;;;;;;;10.00;6.10;;;896.10;2124.80;;;;;;5091015;28;20074;-79
2023/07/12 11:04:30;;;;;;;10.82;7.13;;;896.20;2124.80;;;;;;5092325;28;20054;-78
2023/07/12 11:07:15;;;;;;;9.75;6.90;;;896.20;2124.80;;;;;;5077492;28;20040;-79
2023/07/12 11:09:45;;;;;;;10.32;7.35;;;896.10;2124.80;;;;;;5093816;28;20055;-78
2023/07/12 11:12:16;;;;;;;14.40;7.85;;;896.70;2099.20;;;;;;5093479;28;20035;-79
2023/07/12 11:14:52;;;;;;;9.60;7.25;;;921.80;2099.20;;;;;;5093763;28;20082;-79
2023/07/12 11:17:27;;;;;;;13.70;7.25;;;922.00;2099.20;;;;;;5091965;28;20063;-79
2023/07/12 11:20:25;;;;;;;11.55;9.13;;;922.30;2124.80;;;;;;5092688;28;20487;-80
2023/07/12 11:22:57;;;;;;;12.00;7.35;;;922.50;2124.80;;;;;;5096668;28;20068;-81
2023/07/12 11:25:31;;;;;;;9.10;6.20;;;947.30;2099.20;;;;;;5096379;28;20020;-80
2023/07/12 11:28:03;;;;;;;8.63;6.18;;;947.20;2048.00;;;;;;5095148;28;20025;-81
2023/07/12 11:30:36;;;;;;;11.73;6.75;;;922.50;2048.00;;;;;;5096750;28;20024;-81
2023/07/12 11:33:08;;;;;;;10.43;5.53;;;947.30;2073.60;;;;;;5095025;28;20043;-80
2023/07/12 11:35:57;;;;;;;7.30;5.50;;;922.50;2048.00;;;;;;5096349;28;20028;-82
2023/07/12 11:38:31;;;;;;;11.18;6.18;;;922.50;2048.00;;;;;;5094866;28;20472;-80
2023/07/12 11:41:02;;;;;;;11.18;6.15;;;947.20;2022.40;;;;;;5096410;28;20478;-81
2023/07/12 11:43:34;;;;;;;8.20;5.32;;;947.60;2022.40;;;;;;5094994;28;20085;-80
2023/07/12 11:46:03;;;;;;;8.05;6.43;;;947.70;2022.40;;;;;;5095302;28;20032;-79
2023/07/12 11:48:33;;;;;;;10.50;6.22;;;947.90;1996.80;;;;;;5094835;28;20024;-80
2023/07/12 11:51:08;;;;;;;12.20;6.00;;;948.00;1971.20;;;;;;5095122;28;20084;-80
2023/07/12 11:53:35;;;;;;;9.23;6.15;;;948.10;1971.20;;;;;;5094747;28;20088;-79
2023/07/12 11:56:01;;;;;;;14.55;6.15;;;948.10;2022.40;;;;;;5093773;28;20028;-79
2023/07/12 11:58:27;;;;;;;11.63;6.18;;;973.10;2022.40;;;;;;5094778;28;20027;-80
2023/07/12 12:00:58;;;;;;;7.75;5.38;;;973.00;1971.20;;;;;;5095838;28;20460;-81
2023/07/12 12:03:25;;;;;;;8.10;5.55;;;972.90;1996.80;;;;;;5094592;28;20028;-79
2023/07/12 12:05:51;;;;;;;8.35;5.60;;;948.10;1996.80;;;;;;5095012;28;20085;-80
2023/07/12 12:08:21;;;;;;;8.75;5.72;;;972.80;2022.40;;;;;;5094825;28;20164;-81
2023/07/12 12:10:48;;;;;;;10.77;5.60;;;973.10;1996.80;;;;;;5094383;28;20097;-82
2023/07/12 12:13:23;;;;;;;9.18;5.40;;;973.20;1971.20;;;;;;5095045;28;20494;-79
2023/07/12 12:15:52;;;;;;;9.23;5.15;;;973.00;1971.20;;;;;;5099660;28;20464;-79